Airfield :
LOGIN :

Register | Disclaimer

   EN    FR    IT 

 










Legend :    VFR   Marginal VFR   IFR   Intensive IFR   Very Intensive IFR
Visi :
Ceiling :
>= 8 km
>= 3000ft
5 to 8 km
1000 to 3000 ft
1500m to 5 km
500 to 1000 ft
800 to 1500m
200 to 500 ft
< 800m
< 200 ft
Symbols :   Thunderstorms  Fog  Heavy snow  Heavy precipitations  Wind > 20 kt
SIGMETs :     Misc.  Thunderstorms  Icing  Turbulence  Mountain Waves  Volcanic Ashes






- Airport Elevation : 1789 ft
- IATA code : PRN


BKPR - Pristina

CURRENT METAR :
  • 261730Z 34008KT 9999 FEW030 SCT050 10/06 Q1022 NOSIG

EXPIRED METARs :
  • 261700Z 02015KT 9999 FEW030 SCT050 10/05 Q1022 NOSIG
  • 261630Z 33010KT 9999 FEW030CB SCT040 BKN080 11/06 Q1022 NOSIG
  • 261600Z 33010KT 9999 -SHRA FEW030CB SCT040 BKN080 13/05 Q1021 TEMPO 03015G25KT
  • 261530Z 32010KT 9999 FEW030TCU SCT040 BKN080 13/05 Q1021 NOSIG
  • 261500Z 32012KT 9999 FEW030TCU SCT040 BKN080 14/05 Q1021 NOSIG

TAF TAF BKPR
Valid from the 26 at 18:00 until the 27 at 18:00 UTC


261730Z 2618/2718 35010KT 9999 SCT040 BKN080
PROB30
TEMPO 2709/2718 5000 -TSRA SCT025CB



MET'MAP, your aeronautical weather chart ! - Copyright ORBIFLY December 2007 - Disclaimer

ORBIFLY MET'MAP TEAM :

Programming & Development : Alexandra Zaïnal
Concept & original design : Baudouin d'Aumeries
Assistance for programming : Marc-Olivier Méhu
Technical & hardware support : Manuel Goepfert

Contact : metmap@orbifly.com




SOURCES & CREDITS :

   NOAA